SWR40 LSZH-KLAX
Flight info
| Callsign | SWR40 |
|---|---|
| Flight time | N/A |
| Altitude | 32000 |
| Route | DEGES Z1 ETAGO DCT HAREM/N0487F330 DCT LOHRE DCT ELNAT/N0489F320 DCT STADE DCT ATTUS DCT BAVTA DCT MITSI DCT GUNPA/M084F340 DCT 63N010W 65N020W 66N030W 67N040W 68N050W 69N060W DCT BOPUT/N0493F340 DCT 68N070W/N0485F360 67N080W 65N090W 60N101W DCT MEETO Q896 BORIX/N0492F380 Q896 YQL DCT REO/N0488F390 DCT LLC/N0488F380 DCT FRA/N0486F390 DCT FRASR DCT FIM SADDE8 |
| Aircraft | B77W/H-SDE1E2E3FGHIJ2J3J4J5M1RWXY/LB1D1 |
Departure
| Time | 2026-04-26 14:47 |
|---|---|
| Airport | Zürich Airport (LSZH) |
Arrival
| Time | N/A |
|---|---|
| Airport | Los Angeles International Airport (KLAX) |
| Time | Latitude | Longitude | Altitude | Speed | Heading |
|---|---|---|---|---|---|
| 2026-04-26 14:17 | 47.46033 | 8.55622 | 1408 ft | 0 kts | 6° |
| 2026-04-26 14:37 | 47.46029 | 8.55621 | 1402 ft | 2 kts | 6° |
| 2026-04-26 14:38 | 47.46013 | 8.55619 | 1406 ft | 2 kts | 3° |
| 2026-04-26 14:38 | 47.45996 | 8.55619 | 1401 ft | 2 kts | 360° |
| 2026-04-26 14:38 | 47.45980 | 8.55620 | 1406 ft | 2 kts | 352° |
| 2026-04-26 14:38 | 47.45964 | 8.55626 | 1411 ft | 2 kts | 327° |
| 2026-04-26 14:39 | 47.45954 | 8.55643 | 1411 ft | 2 kts | 284° |
| 2026-04-26 14:39 | 47.45953 | 8.55652 | 1411 ft | 0 kts | 281° |
| 2026-04-26 14:42 | 47.45953 | 8.55651 | 1411 ft | 0 kts | 281° |
| 2026-04-26 14:42 | 47.45955 | 8.55605 | 1407 ft | 8 kts | 264° |
| 2026-04-26 14:43 | 47.45913 | 8.55556 | 1408 ft | 8 kts | 184° |
| 2026-04-26 14:43 | 47.45869 | 8.55605 | 1410 ft | 9 kts | 111° |
| 2026-04-26 14:43 | 47.45862 | 8.55692 | 1412 ft | 9 kts | 96° |
| 2026-04-26 14:43 | 47.45855 | 8.55780 | 1404 ft | 9 kts | 96° |
| 2026-04-26 14:44 | 47.45850 | 8.55868 | 1407 ft | 9 kts | 96° |
| 2026-04-26 14:44 | 47.45843 | 8.55961 | 1404 ft | 11 kts | 96° |
| 2026-04-26 14:44 | 47.45831 | 8.56122 | 1413 ft | 20 kts | 96° |
| 2026-04-26 14:44 | 47.45816 | 8.56329 | 1410 ft | 20 kts | 96° |
| 2026-04-26 14:45 | 47.45801 | 8.56534 | 1407 ft | 20 kts | 96° |
| 2026-04-26 14:45 | 47.45792 | 8.56670 | 1410 ft | 20 kts | 95° |
| 2026-04-26 14:45 | 47.45773 | 8.56941 | 1401 ft | 20 kts | 97° |
| 2026-04-26 14:45 | 47.45678 | 8.57025 | 1406 ft | 8 kts | 200° |
| 2026-04-26 14:46 | 47.45664 | 8.56980 | 1409 ft | 4 kts | 259° |
| 2026-04-26 14:46 | 47.45666 | 8.56931 | 1407 ft | 8 kts | 276° |
| 2026-04-26 14:46 | 47.45694 | 8.56551 | 1406 ft | 80 kts | 276° |
| 2026-04-26 14:46 | 47.45784 | 8.55279 | 1401 ft | 168 kts | 275° |
| 2026-04-26 14:47 | 47.45945 | 8.53225 | 1709 ft | 217 kts | 278° |
| 2026-04-26 14:47 | 47.46115 | 8.51001 | 2920 ft | 220 kts | 278° |
| 2026-04-26 14:47 | 47.46259 | 8.48708 | 3762 ft | 230 kts | 274° |
| 2026-04-26 14:47 | 47.45939 | 8.46371 | 3985 ft | 245 kts | 238° |
| 2026-04-26 14:48 | 47.44695 | 8.44663 | 4459 ft | 254 kts | 204° |
| 2026-04-26 14:48 | 47.42937 | 8.44118 | 4857 ft | 265 kts | 174° |
| 2026-04-26 14:48 | 47.41177 | 8.44879 | 5449 ft | 267 kts | 146° |
| 2026-04-26 14:48 | 47.39903 | 8.46831 | 5965 ft | 269 kts | 114° |
| 2026-04-26 14:49 | 47.39523 | 8.49489 | 5975 ft | 267 kts | 81° |
| 2026-04-26 14:49 | 47.40277 | 8.51928 | 6390 ft | 267 kts | 45° |
| 2026-04-26 14:49 | 47.41733 | 8.53680 | 6848 ft | 274 kts | 38° |
| 2026-04-26 14:49 | 47.42974 | 8.55826 | 7275 ft | 280 kts | 67° |
| 2026-04-26 14:50 | 47.43638 | 8.58500 | 7840 ft | 283 kts | 69° |
| 2026-04-26 14:50 | 47.44398 | 8.61212 | 8519 ft | 287 kts | 66° |
| 2026-04-26 14:50 | 47.45206 | 8.63923 | 9232 ft | 290 kts | 66° |
| 2026-04-26 14:50 | 47.46015 | 8.66676 | 9885 ft | 293 kts | 71° |
| 2026-04-26 14:51 | 47.46391 | 8.69645 | 10358 ft | 296 kts | 90° |
| 2026-04-26 14:51 | 47.46416 | 8.72762 | 10608 ft | 315 kts | 89° |
| 2026-04-26 14:51 | 47.46502 | 8.76121 | 10776 ft | 338 kts | 88° |
| 2026-04-26 14:51 | 47.46617 | 8.79725 | 10917 ft | 363 kts | 89° |
| 2026-04-26 14:52 | 47.46512 | 8.83539 | 11306 ft | 377 kts | 97° |
| 2026-04-26 14:52 | 47.46051 | 8.87399 | 11866 ft | 386 kts | 103° |
| 2026-04-26 14:52 | 47.45454 | 8.91284 | 12592 ft | 391 kts | 103° |
| 2026-04-26 14:52 | 47.44859 | 8.95240 | 13326 ft | 396 kts | 103° |
| 2026-04-26 14:53 | 47.44289 | 8.99167 | 14192 ft | 397 kts | 102° |
| 2026-04-26 14:53 | 47.43714 | 9.03199 | 14770 ft | 405 kts | 102° |
| 2026-04-26 14:53 | 47.43136 | 9.07295 | 15430 ft | 409 kts | 102° |
| 2026-04-26 14:53 | 47.42550 | 9.11449 | 16052 ft | 416 kts | 101° |
| 2026-04-26 14:54 | 47.41986 | 9.15655 | 16645 ft | 419 kts | 97° |
| 2026-04-26 14:54 | 47.41974 | 9.19971 | 17190 ft | 424 kts | 79° |
| 2026-04-26 14:54 | 47.42766 | 9.24149 | 17929 ft | 424 kts | 65° |
| 2026-04-26 14:54 | 47.44171 | 9.27978 | 18584 ft | 425 kts | 56° |
| 2026-04-26 14:55 | 47.45728 | 9.31731 | 19100 ft | 431 kts | 57° |
| 2026-04-26 14:55 | 47.47268 | 9.35553 | 19626 ft | 433 kts | 54° |
| 2026-04-26 14:55 | 47.49182 | 9.39000 | 20058 ft | 435 kts | 39° |
| 2026-04-26 14:55 | 47.51651 | 9.41573 | 20602 ft | 434 kts | 25° |
| 2026-04-26 14:56 | 47.54439 | 9.43224 | 21145 ft | 432 kts | 14° |
| 2026-04-26 14:56 | 47.57349 | 9.44413 | 21624 ft | 436 kts | 9° |
| 2026-04-26 14:56 | 47.60349 | 9.45161 | 22118 ft | 439 kts | 4° |
| 2026-04-26 14:56 | 47.63406 | 9.45460 | 22657 ft | 440 kts | 358° |
| 2026-04-26 14:57 | 47.66486 | 9.45583 | 23182 ft | 445 kts | 358° |
| 2026-04-26 14:57 | 47.69592 | 9.45720 | 23708 ft | 449 kts | 359° |
| 2026-04-26 14:57 | 47.72732 | 9.45880 | 24140 ft | 453 kts | 359° |
| 2026-04-26 14:57 | 47.75887 | 9.46057 | 24573 ft | 456 kts | 359° |
| 2026-04-26 14:58 | 47.79072 | 9.46238 | 25008 ft | 459 kts | 359° |
| 2026-04-26 14:58 | 47.82271 | 9.46388 | 25433 ft | 462 kts | 358° |
| 2026-04-26 14:58 | 47.85493 | 9.46403 | 25862 ft | 465 kts | 356° |
| 2026-04-26 14:58 | 47.88701 | 9.46356 | 26247 ft | 468 kts | 356° |
| 2026-04-26 14:59 | 47.91970 | 9.46300 | 26642 ft | 471 kts | 356° |
| 2026-04-26 14:59 | 47.95260 | 9.46259 | 27049 ft | 474 kts | 356° |
| 2026-04-26 14:59 | 47.98571 | 9.46234 | 27435 ft | 477 kts | 356° |
| 2026-04-26 14:59 | 48.00777 | 9.46225 | 27696 ft | 479 kts | 356° |
| 2026-04-26 15:00 | 48.05255 | 9.46216 | 28186 ft | 483 kts | 356° |
| 2026-04-26 15:00 | 48.08623 | 9.46212 | 28568 ft | 485 kts | 356° |
| 2026-04-26 15:00 | 48.12001 | 9.46207 | 28941 ft | 487 kts | 356° |
| 2026-04-26 15:00 | 48.15401 | 9.46198 | 29253 ft | 490 kts | 356° |
| 2026-04-26 15:01 | 48.18821 | 9.46189 | 29553 ft | 492 kts | 356° |
| 2026-04-26 15:01 | 48.22256 | 9.46185 | 29845 ft | 495 kts | 356° |
| 2026-04-26 15:01 | 48.25705 | 9.46184 | 30157 ft | 496 kts | 356° |
| 2026-04-26 15:01 | 48.29140 | 9.46186 | 30710 ft | 490 kts | 357° |
| 2026-04-26 15:02 | 48.32487 | 9.46191 | 31288 ft | 484 kts | 357° |
| 2026-04-26 15:02 | 48.35852 | 9.46193 | 31706 ft | 482 kts | 356° |
| 2026-04-26 15:02 | 48.39213 | 9.46193 | 31991 ft | 483 kts | 356° |
| 2026-04-26 15:02 | 48.42579 | 9.46191 | 32127 ft | 486 kts | 357° |
| 2026-04-26 15:03 | 48.45971 | 9.46192 | 32174 ft | 488 kts | 357° |
| 2026-04-26 15:03 | 48.52726 | 9.46196 | 32190 ft | 482 kts | 357° |
| 2026-04-26 15:04 | 48.59427 | 9.46142 | 32201 ft | 481 kts | 356° |
| 2026-04-26 15:04 | 48.66131 | 9.46061 | 32198 ft | 481 kts | 356° |
| 2026-04-26 15:05 | 48.72832 | 9.45993 | 32208 ft | 482 kts | 356° |
| 2026-04-26 15:05 | 48.79529 | 9.45735 | 32205 ft | 481 kts | 355° |
| 2026-04-26 15:06 | 48.86220 | 9.45340 | 32210 ft | 481 kts | 355° |
| 2026-04-26 15:06 | 48.92921 | 9.44962 | 32231 ft | 482 kts | 355° |
| 2026-04-26 15:07 | 49.02931 | 9.44443 | 32224 ft | 482 kts | 355° |
| 2026-04-26 15:07 | 49.09639 | 9.44101 | 32231 ft | 481 kts | 355° |
| 2026-04-26 15:08 | 49.16322 | 9.43758 | 32239 ft | 481 kts | 355° |
| 2026-04-26 15:08 | 49.23013 | 9.43412 | 32233 ft | 481 kts | 355° |
| 2026-04-26 15:09 | 49.29701 | 9.43066 | 32219 ft | 481 kts | 355° |
| 2026-04-26 15:09 | 49.36389 | 9.42719 | 32247 ft | 480 kts | 355° |
| 2026-04-26 15:10 | 49.41937 | 9.42431 | 32240 ft | 480 kts | 355° |
| 2026-04-26 15:10 | 49.46848 | 9.42175 | 32237 ft | 480 kts | 355° |
| 2026-04-26 15:11 | 49.51269 | 9.41946 | 32245 ft | 478 kts | 355° |